createdAt,value
2018-09-11T00:02:04.800Z,5.30
2018-09-11T00:04:33.176Z,6.17
2018-09-11T00:07:01.623Z,5.50
2018-09-11T00:09:30.043Z,6.60
2018-09-11T00:11:58.465Z,11.57
2018-09-11T00:14:26.939Z,6.70
2018-09-11T00:16:55.298Z,5.70
2018-09-11T00:19:23.746Z,5.80
2018-09-11T00:21:52.229Z,9.30
2018-09-11T00:24:20.608Z,8.20
2018-09-11T00:26:49.026Z,7.97
2018-09-11T00:29:18.085Z,8.20
2018-09-11T00:31:46.503Z,5.10
2018-09-11T00:34:14.834Z,6.10
2018-09-11T00:36:43.230Z,9.40
2018-09-11T00:39:11.582Z,6.60
2018-09-11T00:41:40.220Z,6.47
2018-09-11T00:44:08.626Z,7.90
2018-09-11T00:46:37.001Z,7.57
2018-09-11T00:49:05.404Z,8.20
2018-09-11T00:51:33.723Z,9.80
2018-09-11T00:54:02.148Z,5.20
2018-09-11T00:56:30.519Z,7.17
2018-09-11T00:58:58.938Z,6.83
2018-09-11T01:01:27.343Z,7.23
2018-09-11T01:03:55.689Z,6.03
2018-09-11T01:06:24.102Z,8.53
2018-09-11T01:08:52.447Z,9.67
2018-09-11T01:11:20.906Z,5.73
2018-09-11T01:13:50.030Z,7.33
2018-09-11T01:16:18.455Z,5.17
2018-09-11T01:18:46.844Z,5.50
2018-09-11T01:21:15.235Z,5.40
2018-09-11T01:23:43.631Z,7.90
2018-09-11T01:26:12.066Z,6.10
2018-09-11T01:28:40.415Z,8.83
2018-09-11T01:31:08.765Z,9.20
2018-09-11T01:33:37.304Z,5.70
2018-09-11T01:36:05.764Z,7.57
2018-09-11T01:38:34.309Z,6.47
2018-09-11T01:41:02.657Z,6.60
2018-09-11T01:43:31.036Z,7.17
2018-09-11T01:45:59.500Z,7.57
2018-09-11T01:48:27.844Z,5.80
2018-09-11T01:50:56.307Z,8.37
2018-09-11T01:53:24.670Z,6.83
2018-09-11T01:55:53.009Z,7.20
2018-09-11T01:58:21.403Z,5.73
2018-09-11T02:00:49.869Z,6.13
2018-09-11T02:03:18.993Z,5.10
2018-09-11T02:05:47.450Z,7.93
2018-09-11T02:08:15.871Z,20.40
2018-09-11T02:10:44.455Z,8.30
2018-09-11T02:13:12.868Z,8.20
2018-09-11T02:15:42.122Z,7.30
2018-09-11T02:18:10.510Z,7.10
2018-09-11T02:20:38.895Z,9.17
2018-09-11T02:23:07.269Z,7.30
2018-09-11T02:25:36.504Z,7.13
2018-09-11T02:28:05.934Z,6.43
2018-09-11T02:30:34.635Z,9.40
2018-09-11T02:33:03.010Z,8.37
2018-09-11T02:35:31.438Z,6.50
2018-09-11T02:37:59.818Z,5.20
2018-09-11T02:40:28.181Z,8.93
2018-09-11T02:42:56.504Z,9.13
2018-09-11T02:45:24.895Z,11.10
2018-09-11T02:47:54.361Z,7.83
2018-09-11T02:50:22.752Z,9.23
2018-09-11T02:52:51.269Z,8.70
2018-09-11T02:55:19.711Z,7.73
2018-09-11T02:57:48.092Z,8.10
2018-09-11T03:00:16.416Z,7.50
2018-09-11T03:02:44.908Z,9.00
2018-09-11T03:05:13.304Z,8.93
2018-09-11T03:07:41.671Z,10.57
2018-09-11T03:10:10.623Z,9.93
2018-09-11T03:12:38.997Z,12.93
2018-09-11T03:15:07.411Z,8.87
2018-09-11T03:17:35.785Z,6.17
2018-09-11T03:20:04.269Z,8.53
2018-09-11T03:22:32.713Z,11.80
2018-09-11T03:25:01.732Z,9.27
2018-09-11T03:27:30.083Z,9.10
2018-09-11T03:29:58.410Z,8.83
2018-09-11T03:32:26.879Z,9.53
2018-09-11T03:34:55.279Z,11.10
2018-09-11T03:37:23.798Z,8.27
2018-09-11T03:39:52.184Z,7.30
2018-09-11T03:42:20.672Z,8.80
2018-09-11T03:44:49.074Z,8.90
2018-09-11T03:47:17.451Z,9.33
2018-09-11T03:49:45.811Z,9.50
2018-09-11T03:52:14.155Z,10.20
2018-09-11T03:54:42.508Z,7.03
2018-09-11T03:57:10.889Z,9.93
2018-09-11T03:59:39.264Z,8.83
2018-09-11T04:02:07.652Z,9.23
2018-09-11T04:04:36.063Z,8.87
2018-09-11T04:07:04.452Z,8.97
2018-09-11T04:09:33.310Z,9.17
2018-09-11T04:12:01.714Z,8.37
2018-09-11T04:14:30.074Z,7.60
2018-09-11T04:16:58.459Z,9.43
2018-09-11T04:19:27.510Z,7.87
2018-09-11T04:21:55.893Z,10.87
2018-09-11T04:24:24.336Z,7.93
2018-09-11T04:26:52.732Z,7.07
2018-09-11T04:29:21.220Z,12.83
2018-09-11T04:31:49.684Z,8.40
2018-09-11T04:34:18.055Z,7.30
2018-09-11T04:36:46.430Z,7.33
2018-09-11T04:39:15.554Z,8.43
2018-09-11T04:41:44.107Z,10.03
2018-09-11T04:44:12.478Z,11.90
2018-09-11T04:46:40.915Z,12.00
2018-09-11T04:49:09.999Z,7.93
2018-09-11T04:51:38.463Z,16.33
2018-09-11T04:54:06.864Z,10.73
2018-09-11T04:56:35.239Z,10.07
2018-09-11T04:59:04.523Z,10.77
2018-09-11T05:01:32.905Z,9.07
2018-09-11T05:04:01.263Z,11.40
2018-09-11T05:06:29.661Z,10.80
2018-09-11T05:08:58.012Z,17.30
2018-09-11T05:11:26.430Z,9.77
2018-09-11T05:13:54.800Z,9.87
2018-09-11T05:16:23.145Z,10.40
2018-09-11T05:18:51.509Z,17.17
2018-09-11T05:21:20.525Z,9.67
2018-09-11T05:23:48.921Z,9.70
2018-09-11T05:26:17.290Z,11.03
2018-09-11T05:28:45.667Z,9.73
2018-09-11T05:31:14.028Z,8.50
2018-09-11T05:33:42.613Z,10.97
2018-09-11T05:36:10.931Z,11.97
2018-09-11T05:38:39.286Z,13.20
2018-09-11T05:41:07.647Z,11.07
2018-09-11T05:43:36.033Z,12.67
2018-09-11T05:46:05.025Z,8.33
2018-09-11T05:48:34.039Z,12.40
2018-09-11T05:51:02.479Z,11.97
2018-09-11T05:53:30.816Z,11.63
2018-09-11T05:55:59.250Z,12.73
2018-09-11T05:58:27.842Z,16.13
2018-09-11T06:00:56.138Z,23.13
2018-09-11T06:03:24.560Z,10.70
2018-09-11T06:05:52.907Z,11.90
2018-09-11T06:08:21.307Z,12.47
2018-09-11T06:10:49.681Z,13.33
2018-09-11T06:13:18.078Z,12.80
2018-09-11T06:15:46.423Z,9.77
2018-09-11T06:18:14.788Z,19.57
2018-09-11T06:20:43.180Z,10.97
2018-09-11T06:23:11.567Z,16.10
2018-09-11T06:25:39.990Z,10.73
2018-09-11T06:28:08.422Z,12.40
2018-09-11T06:30:37.579Z,15.07
2018-09-11T06:33:06.190Z,14.03
2018-09-11T06:35:34.687Z,13.37
2018-09-11T06:38:03.018Z,12.73
2018-09-11T06:40:31.472Z,14.43
2018-09-11T06:42:59.909Z,19.13
2018-09-11T06:45:28.342Z,14.43
2018-09-11T06:47:56.716Z,15.20
2018-09-11T06:50:25.338Z,9.50
2018-09-11T06:52:53.690Z,10.63
2018-09-11T06:55:22.123Z,12.30
2018-09-11T06:57:50.653Z,12.43
2018-09-11T07:00:19.166Z,13.00
2018-09-11T07:02:54.708Z,16.23
2018-09-11T07:05:23.135Z,10.20
2018-09-11T07:07:51.609Z,14.83
2018-09-11T07:10:19.962Z,12.47
2018-09-11T07:12:48.379Z,10.67
2018-09-11T07:15:16.758Z,9.93
2018-09-11T07:17:45.166Z,9.53
2018-09-11T07:20:13.750Z,8.70
2018-09-11T07:22:41.913Z,8.53
2018-09-11T07:25:10.296Z,11.23
2018-09-11T07:27:38.783Z,17.20
2018-09-11T07:30:07.238Z,16.83
2018-09-11T07:32:35.652Z,9.40
2018-09-11T07:35:04.267Z,15.43
2018-09-11T07:37:32.664Z,11.67
2018-09-11T07:40:01.216Z,8.67
2018-09-11T07:42:29.576Z,12.33
2018-09-11T07:44:57.966Z,10.33
2018-09-11T07:47:26.358Z,6.47
2018-09-11T07:49:54.778Z,8.77
2018-09-11T07:52:23.225Z,15.70
2018-09-11T07:54:51.528Z,11.40
2018-09-11T07:57:19.852Z,7.83
2018-09-11T07:59:48.325Z,7.33
2018-09-11T08:02:16.681Z,9.53
2018-09-11T08:04:45.064Z,9.37
2018-09-11T08:07:13.589Z,7.47
2018-09-11T08:09:42.026Z,9.30
2018-09-11T08:12:10.441Z,5.43
2018-09-11T08:14:38.872Z,12.27
2018-09-11T08:17:07.232Z,6.10
2018-09-11T08:19:35.743Z,9.20
2018-09-11T08:22:04.159Z,5.90
2018-09-11T08:24:32.660Z,9.87
2018-09-11T08:27:01.101Z,5.00
2018-09-11T08:29:29.498Z,4.73
2018-09-11T08:31:57.883Z,5.57
2018-09-11T08:34:26.307Z,4.10
2018-09-11T08:36:54.671Z,8.03
2018-09-11T08:39:23.102Z,4.83
2018-09-11T08:41:51.451Z,4.00
2018-09-11T08:44:20.186Z,3.10
2018-09-11T08:46:48.589Z,4.50
2018-09-11T08:49:16.954Z,5.50
2018-09-11T08:51:45.389Z,5.10
2018-09-11T08:54:14.514Z,4.63
2018-09-11T08:56:42.976Z,3.23
2018-09-11T08:59:11.379Z,5.17
2018-09-11T09:01:39.795Z,5.80
2018-09-11T09:04:08.283Z,4.40
2018-09-11T09:06:36.612Z,3.23
2018-09-11T09:09:08.055Z,3.10
2018-09-11T09:11:36.570Z,4.17
2018-09-11T09:14:04.972Z,3.17
2018-09-11T09:16:33.351Z,4.17
2018-09-11T09:19:01.831Z,4.20
2018-09-11T09:21:30.290Z,7.20
2018-09-11T09:23:58.661Z,3.20
2018-09-11T09:26:27.250Z,3.93
2018-09-11T09:28:58.305Z,2.90
2018-09-11T09:31:26.646Z,3.60
2018-09-11T09:33:55.014Z,5.00
2018-09-11T09:36:23.814Z,7.03
2018-09-11T09:38:52.133Z,3.37
2018-09-11T09:41:20.589Z,7.83
2018-09-11T09:43:48.983Z,4.73
2018-09-11T09:46:17.310Z,7.00
2018-09-11T09:48:45.710Z,4.77
2018-09-11T09:51:14.136Z,4.10
2018-09-11T09:53:42.497Z,3.93
2018-09-11T09:56:10.885Z,3.50
2018-09-11T09:58:39.289Z,3.30
2018-09-11T10:02:10.730Z,4.00
2018-09-11T10:04:39.121Z,6.60
2018-09-11T10:07:07.454Z,2.53
2018-09-11T10:09:35.918Z,6.87
2018-09-11T10:12:04.317Z,3.13
2018-09-11T10:14:32.657Z,3.27
2018-09-11T10:17:00.999Z,5.53
2018-09-11T10:19:29.378Z,3.50
2018-09-11T10:21:57.743Z,6.40
2018-09-11T10:24:26.160Z,5.77
2018-09-11T10:26:54.564Z,6.90
2018-09-11T10:29:23.665Z,7.73
2018-09-11T10:31:52.634Z,4.37
2018-09-11T10:34:21.142Z,5.00
2018-09-11T10:36:50.128Z,4.40
2018-09-11T10:39:18.552Z,3.50
2018-09-11T10:41:46.881Z,4.33
2018-09-11T10:44:15.282Z,2.73
2018-09-11T10:46:43.763Z,4.47
2018-09-11T10:49:12.205Z,4.17
2018-09-11T10:51:40.634Z,2.97
2018-09-11T10:54:08.985Z,5.27
2018-09-11T10:56:37.388Z,7.87
2018-09-11T10:59:05.782Z,4.93
2018-09-11T11:01:34.136Z,2.80
2018-09-11T11:04:02.772Z,3.13
2018-09-11T11:06:31.182Z,3.10
2018-09-11T11:08:59.537Z,2.90
2018-09-11T11:11:27.973Z,3.70
2018-09-11T11:13:56.322Z,5.07
2018-09-11T11:16:24.678Z,3.20
2018-09-11T11:18:53.049Z,3.07
2018-09-11T11:21:21.677Z,3.27
2018-09-11T11:23:50.557Z,3.13
2018-09-11T11:26:18.970Z,4.63
2018-09-11T11:28:47.334Z,4.23
2018-09-11T11:31:15.770Z,4.23
2018-09-11T11:33:44.139Z,3.70
2018-09-11T11:36:12.699Z,3.00
2018-09-11T11:38:40.909Z,3.23
2018-09-11T11:41:09.362Z,3.03
2018-09-11T11:43:37.739Z,5.33
2018-09-11T11:46:06.119Z,3.27
2018-09-11T11:48:34.527Z,3.27
2018-09-11T11:51:02.945Z,2.30
2018-09-11T11:53:31.425Z,2.70
2018-09-11T11:55:59.837Z,7.07
2018-09-11T11:58:28.379Z,3.03
2018-09-11T12:00:57.339Z,4.07
2018-09-11T12:03:25.805Z,5.10
2018-09-11T12:05:54.244Z,2.27
2018-09-11T12:08:22.966Z,5.23
2018-09-11T12:10:51.351Z,2.70
2018-09-11T12:13:19.717Z,2.93
2018-09-11T12:15:48.110Z,2.97
2018-09-11T12:18:16.493Z,6.03
2018-09-11T12:20:44.949Z,4.20
2018-09-11T12:23:13.359Z,4.53
2018-09-11T12:25:42.444Z,4.83
2018-09-11T12:28:10.869Z,4.67
2018-09-11T12:30:39.265Z,6.60
2018-09-11T12:33:07.717Z,2.93
2018-09-11T12:35:36.624Z,6.23
2018-09-11T12:38:05.080Z,4.73
2018-09-11T12:40:33.585Z,2.77
2018-09-11T12:43:02.035Z,3.30
2018-09-11T12:45:30.434Z,5.40
2018-09-11T12:47:59.265Z,6.43
2018-09-11T12:50:27.248Z,3.40
2018-09-11T12:52:55.653Z,3.40
2018-09-11T12:55:24.418Z,5.00
2018-09-11T12:57:52.759Z,3.93
2018-09-11T13:00:21.781Z,3.97
2018-09-11T13:02:50.204Z,3.57
2018-09-11T13:05:18.599Z,3.50
2018-09-11T13:07:46.938Z,2.80
2018-09-11T13:10:15.322Z,3.57
2018-09-11T13:12:43.902Z,4.73
2018-09-11T13:15:12.514Z,3.97
2018-09-11T13:17:40.911Z,4.97
2018-09-11T13:20:09.379Z,5.50
2018-09-11T13:22:37.753Z,6.07
2018-09-11T13:25:06.145Z,5.10
2018-09-11T13:27:34.507Z,3.60
2018-09-11T13:30:02.927Z,4.27
2018-09-11T13:32:31.375Z,4.00
2018-09-11T13:34:59.769Z,7.03
2018-09-11T13:37:28.202Z,4.10
2018-09-11T13:39:56.634Z,3.20
2018-09-11T13:42:24.983Z,7.60
2018-09-11T13:44:53.355Z,3.10
2018-09-11T13:47:22.807Z,3.13
2018-09-11T13:49:51.070Z,3.00
2018-09-11T13:52:19.439Z,3.43
2018-09-11T13:54:47.830Z,2.97
2018-09-11T13:57:16.234Z,3.60
2018-09-11T13:59:44.590Z,3.70
2018-09-11T14:02:12.994Z,3.77
2018-09-11T14:04:41.362Z,3.03
2018-09-11T14:07:09.835Z,2.80
2018-09-11T14:09:38.176Z,2.83
2018-09-11T14:12:06.631Z,4.43
2018-09-11T14:14:35.094Z,4.23
2018-09-11T14:17:03.468Z,4.00
2018-09-11T14:19:31.812Z,5.50
2018-09-11T14:22:00.203Z,10.30
2018-09-11T14:24:28.580Z,2.83
2018-09-11T14:26:57.052Z,3.10
2018-09-11T14:29:25.350Z,3.50
2018-09-11T14:31:53.732Z,5.33
2018-09-11T14:34:22.648Z,6.60
2018-09-11T14:36:51.110Z,3.17
2018-09-11T14:39:19.485Z,2.80
2018-09-11T14:41:47.900Z,2.70
2018-09-11T14:44:16.917Z,5.47
2018-09-11T14:46:45.368Z,3.70
2018-09-11T14:49:13.775Z,4.60
2018-09-11T14:51:42.156Z,5.40
2018-09-11T14:54:10.563Z,3.83
2018-09-11T14:56:38.955Z,3.77
2018-09-11T14:59:07.338Z,4.60
2018-09-11T15:01:35.731Z,4.80
2018-09-11T15:04:04.142Z,4.10
2018-09-11T15:06:32.519Z,3.67
2018-09-11T15:09:08.305Z,4.30
2018-09-11T15:11:36.678Z,4.37
2018-09-11T15:14:05.077Z,11.53
2018-09-11T15:16:33.472Z,4.20
2018-09-11T15:19:01.907Z,3.40
2018-09-11T15:21:30.278Z,5.47
2018-09-11T15:23:58.708Z,3.23
2018-09-11T15:26:27.138Z,6.77
2018-09-11T15:28:55.570Z,4.20
2018-09-11T15:31:23.993Z,4.57
2018-09-11T15:33:52.398Z,3.17
2018-09-11T15:36:20.782Z,4.20
2018-09-11T15:38:49.153Z,4.43
2018-09-11T15:41:17.541Z,5.83
2018-09-11T15:43:45.875Z,4.17
2018-09-11T15:46:14.313Z,5.53
2018-09-11T15:48:42.914Z,6.93
2018-09-11T15:51:11.420Z,4.87
2018-09-11T15:53:39.860Z,4.57
2018-09-11T15:56:08.241Z,4.67
2018-09-11T15:58:40.928Z,5.60
2018-09-11T16:01:09.312Z,3.57
2018-09-11T16:03:37.679Z,8.40
2018-09-11T16:06:06.065Z,6.10
2018-09-11T16:08:34.492Z,4.30
2018-09-11T16:11:02.908Z,8.63
2018-09-11T16:13:32.047Z,4.73
2018-09-11T16:16:00.495Z,4.00
2018-09-11T16:18:28.928Z,3.97
2018-09-11T16:20:57.367Z,4.47
2018-09-11T16:23:25.771Z,4.93
2018-09-11T16:25:54.834Z,5.80
2018-09-11T16:28:24.189Z,5.37
2018-09-11T16:30:53.444Z,4.77
2018-09-11T16:33:21.825Z,6.27
2018-09-11T16:35:50.268Z,4.10
2018-09-11T16:38:18.656Z,4.27
2018-09-11T16:40:47.032Z,3.93
2018-09-11T16:43:15.422Z,3.80
2018-09-11T16:45:43.830Z,6.37
2018-09-11T16:48:12.242Z,3.40
2018-09-11T16:50:40.602Z,7.83
2018-09-11T16:53:09.024Z,5.27
2018-09-11T16:55:37.398Z,4.97
2018-09-11T16:58:05.811Z,7.50
2018-09-11T17:00:34.218Z,5.57
2018-09-11T17:03:02.559Z,3.93
2018-09-11T17:05:30.877Z,3.70
2018-09-11T17:07:59.260Z,4.90
2018-09-11T17:10:27.595Z,3.60
2018-09-11T17:12:56.029Z,3.00
2018-09-11T17:15:24.446Z,3.73
2018-09-11T17:17:52.846Z,5.20
2018-09-11T17:20:21.238Z,3.87
2018-09-11T17:22:49.583Z,23.47
2018-09-11T17:25:17.963Z,4.23
2018-09-11T17:27:46.398Z,3.33
2018-09-11T17:30:28.685Z,3.53
2018-09-11T17:32:57.206Z,8.23
2018-09-11T17:35:25.619Z,6.90
2018-09-11T17:37:54.034Z,4.40
2018-09-11T17:40:22.575Z,5.60
2018-09-11T17:42:50.976Z,4.00
2018-09-11T17:45:19.470Z,4.10
2018-09-11T17:47:47.825Z,4.03
2018-09-11T17:50:16.217Z,4.83
2018-09-11T17:52:44.569Z,5.27
2018-09-11T17:55:13.062Z,5.07
2018-09-11T17:57:41.413Z,3.80
2018-09-11T18:00:09.838Z,5.03
2018-09-11T18:02:38.237Z,8.53
2018-09-11T18:05:06.708Z,4.13
2018-09-11T18:07:35.725Z,3.57
2018-09-11T18:10:04.182Z,4.10
2018-09-11T18:12:32.613Z,5.77
2018-09-11T18:15:00.988Z,3.63
2018-09-11T18:17:29.384Z,5.43
2018-09-11T18:19:57.806Z,5.80
2018-09-11T18:22:26.232Z,6.27
2018-09-11T18:24:54.930Z,6.70
2018-09-11T18:27:23.365Z,5.60
2018-09-11T18:29:51.706Z,5.83
2018-09-11T18:32:20.120Z,5.17
2018-09-11T18:34:48.535Z,4.50
2018-09-11T18:37:16.952Z,5.83
2018-09-11T18:39:45.272Z,6.67
2018-09-11T18:42:13.659Z,7.13
2018-09-11T18:44:42.194Z,8.53
2018-09-11T18:47:10.538Z,5.33
2018-09-11T18:49:38.989Z,5.00
2018-09-11T18:52:07.446Z,5.60
2018-09-11T18:54:35.859Z,7.27
2018-09-11T18:57:04.269Z,5.30
2018-09-11T18:59:32.685Z,6.20
2018-09-11T19:02:01.057Z,8.80
2018-09-11T19:04:29.484Z,5.10
2018-09-11T19:06:57.953Z,4.30
2018-09-11T19:09:26.383Z,6.67
2018-09-11T19:11:54.770Z,6.23
2018-09-11T19:14:23.389Z,6.97
2018-09-11T19:16:51.825Z,4.27
2018-09-11T19:19:20.214Z,7.60
2018-09-11T19:21:48.618Z,7.87
2018-09-11T19:24:17.007Z,7.77
2018-09-11T19:26:45.475Z,7.27
2018-09-11T19:29:13.866Z,6.70
2018-09-11T19:31:42.324Z,11.57
2018-09-11T19:34:10.845Z,9.00
2018-09-11T19:36:39.166Z,7.07
2018-09-11T19:39:07.930Z,5.63
2018-09-11T19:41:36.419Z,6.23
2018-09-11T19:44:05.187Z,11.10
2018-09-11T19:46:33.638Z,5.57
2018-09-11T19:49:02.377Z,5.70
2018-09-11T19:51:30.791Z,7.27
2018-09-11T19:53:59.171Z,5.80
2018-09-11T19:56:27.621Z,5.50
2018-09-11T19:58:56.156Z,7.10
2018-09-11T20:01:24.454Z,5.37
2018-09-11T20:03:52.855Z,4.60
2018-09-11T20:06:21.242Z,5.30
2018-09-11T20:08:49.681Z,8.03
2018-09-11T20:11:18.164Z,8.17
2018-09-11T20:13:46.592Z,7.43
2018-09-11T20:16:14.966Z,7.00
2018-09-11T20:18:43.456Z,8.30
2018-09-11T20:21:11.755Z,7.23
2018-09-11T20:23:40.293Z,8.30
2018-09-11T20:26:08.714Z,7.70
2018-09-11T20:28:37.116Z,7.43
2018-09-11T20:31:05.842Z,7.20
2018-09-11T20:33:34.231Z,10.93
2018-09-11T20:36:02.644Z,7.07
2018-09-11T20:38:31.075Z,7.20
2018-09-11T20:40:59.446Z,5.70
2018-09-11T20:43:27.881Z,7.10
2018-09-11T20:45:56.267Z,10.83
2018-09-11T20:48:25.636Z,6.93
2018-09-11T20:50:54.059Z,8.37
2018-09-11T20:53:22.500Z,6.03
2018-09-11T20:55:50.967Z,5.67
2018-09-11T20:58:19.475Z,5.63
2018-09-11T21:00:48.079Z,9.70
2018-09-11T21:03:16.471Z,8.53
2018-09-11T21:05:44.878Z,6.87
2018-09-11T21:08:13.419Z,4.67
2018-09-11T21:10:41.856Z,5.33
2018-09-11T21:13:10.220Z,9.83
2018-09-11T21:15:38.598Z,7.97
2018-09-11T21:18:07.035Z,6.03
2018-09-11T21:20:35.462Z,6.10
2018-09-11T21:23:03.859Z,6.80
2018-09-11T21:25:32.409Z,6.30
2018-09-11T21:28:00.836Z,10.73
2018-09-11T21:30:29.236Z,9.07
2018-09-11T21:32:57.721Z,7.73
2018-09-11T21:35:26.135Z,7.13
2018-09-11T21:37:54.654Z,7.07
2018-09-11T21:40:23.672Z,8.97
2018-09-11T21:42:52.270Z,6.00
2018-09-11T21:45:20.691Z,5.77
2018-09-11T21:47:49.233Z,6.60
2018-09-11T21:50:17.657Z,5.73
2018-09-11T21:52:46.110Z,5.80
2018-09-11T21:55:14.472Z,4.40
2018-09-11T21:57:42.891Z,4.93
2018-09-11T22:00:12.784Z,8.70
2018-09-11T22:02:41.182Z,4.20
2018-09-11T22:05:10.388Z,9.20
2018-09-11T22:07:38.839Z,5.90
2018-09-11T22:10:08.750Z,6.10
2018-09-11T22:12:37.271Z,5.10
2018-09-11T22:15:06.290Z,8.60
2018-09-11T22:17:34.690Z,4.57
2018-09-11T22:20:03.078Z,6.43
2018-09-11T22:22:31.522Z,3.80
2018-09-11T22:24:59.937Z,5.83
2018-09-11T22:27:28.570Z,9.43
2018-09-11T22:29:56.962Z,8.43
2018-09-11T22:32:25.591Z,8.00
2018-09-11T22:34:54.801Z,6.07
2018-09-11T22:37:23.323Z,5.60
2018-09-11T22:39:51.695Z,5.77
2018-09-11T22:42:20.151Z,5.80
2018-09-11T22:44:49.316Z,6.97
2018-09-11T22:47:17.721Z,8.90
2018-09-11T22:49:46.131Z,9.90
2018-09-11T22:52:14.546Z,5.03
2018-09-11T22:54:42.955Z,5.57
2018-09-11T22:57:11.327Z,7.50
2018-09-11T22:59:40.692Z,8.10
2018-09-11T23:02:09.092Z,7.50
2018-09-11T23:04:37.555Z,7.13
2018-09-11T23:07:06.648Z,4.80
2018-09-11T23:09:35.058Z,3.90
2018-09-11T23:12:03.434Z,4.93
2018-09-11T23:14:31.837Z,5.00
2018-09-11T23:17:00.234Z,7.73
2018-09-11T23:19:28.606Z,7.43
2018-09-11T23:21:57.041Z,5.93
2018-09-11T23:24:25.407Z,5.93
2018-09-11T23:26:53.881Z,6.80
2018-09-11T23:29:22.485Z,6.93
2018-09-11T23:31:50.895Z,7.03
2018-09-11T23:34:19.319Z,5.40
2018-09-11T23:36:47.805Z,5.73
2018-09-11T23:39:16.122Z,7.40
2018-09-11T23:41:44.675Z,4.83
2018-09-11T23:44:13.076Z,6.17
2018-09-11T23:46:41.448Z,3.70
2018-09-11T23:49:09.802Z,6.37
2018-09-11T23:51:38.523Z,4.87
2018-09-11T23:54:06.936Z,4.13
2018-09-11T23:56:35.358Z,9.87
2018-09-11T23:59:03.783Z,3.97
